Montalba, TX (75853)

3:44 PM CDT on June 28, 2017 (GMT -0500)
An County Road 430 | | Change Station

Elev 390 ft 31.83 °N, 95.74 °W | Updated 11 seconds ago

Partly Cloudy
Partly Cloudy
87.3 °F
Feels Like 99 °F
N
3.1
Wind Variable Wind from NW
Gusts 9.4 mph

Today
High -- | Low -- °F
--% Chance of Precip.
Yesterday
High -- | Low -- °F
Precip. -- in
Pressure 29.93 in
Visibility 10.0 miles
Clouds Scattered Clouds 3700 ft
Scattered Clouds 4400 ft
Scattered Clouds 6000 ft
Heat Index 99 °F
Dew Point 77 °F
Humidity 71%
Rainfall 0.00 in
Snow Depth Not available.
6:19 AM 8:32 PM
Waxing Crescent, 28% visible
METAR KPSN 282015Z AUTO 10004KT 10SM SCT037 SCT044 SCT060 30/21 A2993 RMK AO2 T03070216
Pressure 29.93 in
Visibility 10.0 miles
Clouds Scattered Clouds 3700 ft
Scattered Clouds 4400 ft
Scattered Clouds 6000 ft
Heat Index 99 °F
Dew Point 77 °F
Humidity 71%
Rainfall 0.00 in
Snow Depth Not available.
6:19 AM 8:32 PM
Waxing Crescent, 28% visible
METAR KPSN 282015Z AUTO 10004KT 10SM SCT037 SCT044 SCT060 30/21 A2993 RMK AO2 T03070216

Get Severe Weather Alerts

Thanks for signing up!

Be on the lookout for a verification email in your inbox.

You'll start receiving the daily forecast at 6 AM.

×

10-Day Weather Forecast

Almanac

Astronomy

Jun. 28, 2017 Rise Set
Actual Time
Civil Twilight
Nautical Twilight
Astronomical Twilight
Moon
Length of Visible Light
Length of Day
Tomorrow will be .
, % of the Moon is Illuminated

Today's Extremes

State Highs State Lows

Community

WunderPhotos

Category 6

Welcome to Category 6. This is the collective home for Weather Underground's featured writeups by Dr. Jeff Masters (right), Bob Henson (left), Chris Burt, and other regular contributors.

Nearby

Air Quality

  Air Quality AQ Index Pollutant
Not available.

Snow Depth

Station Depth Elevation

Earthquake Activity

City Distance Mag. Time & Date
Minimum magnitude displayed is 2.5.

Coastal Water Temperatures

Place Temperature

Stations

Nearby Weather Stations

Station Location Temp. Windchill Dew Point Humidity Wind Precip. Elev Updated Type
                   

Watches & Warnings

There are currently no watches in effect.